Terminal Aerodrome Forecast
Issued by NWS Springfield, MO

Home | Current Version | Previous Version | Text Only | Print | Product List | Glossary On
Versions: 1 2 3 4 5 6 7 8 9 10 11 12 13 14
000
FTUS43 KSGF 282300
TAFSGF
TAF
KSGF 282322Z 2900/2924 18015KT P6SM SCT250 WS020/22050KT
     FM290600 24011KT P6SM SCT250
     FM290800 31010KT P6SM SKC
     FM291300 33014G23KT P6SM OVC015
     FM292200 33013G23KT P6SM BKN025=

USA.gov is the U.S. government's official web portal to all federal, state and local government web resources and services.